METAR stanice u blizini

 

LYBE - Beograd / Surčin, Srbija
Ažurirano: 24/01/2020 12:00
Partly Cloudy
Partly Cloudy
 Pravac vetra J
Vetar: J 11 km/h
Temperatura: 4°C
Osećaj hladnoće: 1°C
Tačka rose: -4°C
Vlažnost: 56%
Pritisak: 1028 hPa
Oblaci: Partly Cloudy
Vidljivost: 8 km
2020/01/24 11:00 LYBE 241100Z 17006KT 130V200 8000 NSC 04/M04 Q1028 NOSIG
LYBT - Beograd / Batajnica, Srbija
Ažurirano: 24/01/2020 12:00
Vedro
Vedro
 Pravac vetra JI
Vetar: JI 6 km/h
Temperatura: 4°C
Tačka rose: -5°C
Vlažnost: 52%
Pritisak: 1028 hPa
Pregled: Vedro
Vidljivost: greater than 10 km
2020/01/24 11:00 LYBT 241100Z 14003KT 070V240 CAVOK 04/M05 Q1028 NOSIG
LYVR - Vršac, Srbija
Ažurirano: 24/01/2020 12:00
Vedro
Vedro
 Pravac vetra JJI
Vetar: JJI 15 km/h
Temperatura: 7°C
Osećaj hladnoće: 4°C
Tačka rose: -6°C
Vlažnost: 39%
Pritisak: 1028 hPa
Pregled: Vedro
Vidljivost: greater than 10 km
2020/01/24 11:00 LYVR 241100Z 16008KT 140V220 CAVOK 07/M06 Q1028 NOSIG
 
LYKV - Lađevci, Srbija
Ažurirano: 24/01/2020 12:00
Partly Cloudy
Partly Cloudy
 Pravac vetra varies
Vetar: varies 4 km/h
Temperatura: 2°C
Tačka rose: 2°C
Vlažnost: 100%
Pritisak: 1029 hPa
Oblaci: Partly Cloudy
Vidljivost: 7 km
2020/01/24 11:00 LYKV 241100Z VRB02KT 7000 NSC 02/02 Q1029 NOSIG
LYNI - Niš, Srbija
Ažurirano: 24/01/2020 12:00
Vedro
Vedro
 Pravac vetra varies
Vetar: varies 4 km/h
Temperatura: 5°C
Tačka rose: -6°C
Vlažnost: 45%
Pritisak: 1030 hPa
Pregled: Vedro
Vidljivost: greater than 10 km
2020/01/24 11:00 LYNI 241100Z VRB02KT CAVOK 05/M06 Q1030 NOSIG
BKPR - Priština, Srbija
Ažurirano: 24/01/2020 12:30
Vedro
Vedro
 Pravac vetra J
Vetar: J 9 km/h
Temperatura: 3°C
Osećaj hladnoće: 0°C
Tačka rose: -7°C
Vlažnost: 48%
Pritisak: 1030 hPa
Pregled: Vedro
Vidljivost: greater than 10 km
2020/01/24 11:30 BKPR 241130Z 19005KT CAVOK 03/M07 Q1030 NOSIG RMK 17010095
 
LHPP - Pecs / Pogany, Hungary
Ažurirano: 24/01/2020 12:15
Partly Cloudy
Partly Cloudy
 Pravac vetra J
Vetar: J 6 km/h
Temperatura: 2°C
Tačka rose: 0°C
Vlažnost: 87%
Pritisak: 1027 hPa
Oblaci: Partly Cloudy
Vidljivost: 6 km
2020/01/24 11:15 LHPP 241115Z 17003KT 6000 NSC 02/00 Q1027
LHUD - Szeged, Hungary
Ažurirano: 04/07/2019 01:45
NOT Current
Vedro
Vedro
 Pravac vetra S
Vetar: S 7 km/h
Temperatura: 18°C
Tačka rose: 13°C
Vlažnost: 73%
Pritisak: 1019 hPa
Pregled: Vedro
Vidljivost: greater than 10 km
2019/07/03 23:45 LHUD 032345Z 35004KT CAVOK 18/13 Q1019
LRTR - Timisoara, Romania
Ažurirano: 24/01/2020 12:00
Few Clouds
Few Clouds
 Pravac vetra IJI
Vetar: IJI 13 km/h
Temperatura: 2°C
Osećaj hladnoće: -1°C
Tačka rose: 1°C
Vlažnost: 93%
Pritisak: 1028 hPa
Oblaci: Few Clouds
Vidljivost: 7 km
Cloud details: Few Clouds 91 m
2020/01/24 11:00 LRTR 241100Z 11007KT 7000 FEW003 02/01 Q1028
 
LRCV - Craiova, Romania
Ažurirano: 24/01/2020 12:00
Vedro
Vedro
 Pravac vetra Z
Vetar: Z 13 km/h
Temperatura: 4°C
Osećaj hladnoće: 1°C
Tačka rose: -5°C
Vlažnost: 52%
Pritisak: 1029 hPa
Pregled: Vedro
Vidljivost: greater than 10 km
2020/01/24 11:00 LRCV 241100Z 27007KT 240V300 CAVOK 04/M05 Q1029
LBSF - Sofia, Bulgaria
Ažurirano: 24/01/2020 12:30
Partly Cloudy
Partly Cloudy
 Pravac vetra Z
Vetar: Z 6 km/h
Temperatura: 2°C
Tačka rose: -6°C
Vlažnost: 56%
Pritisak: 1030 hPa
Oblaci: Partly Cloudy
Vidljivost: 8 km
2020/01/24 11:30 LBSF 241130Z 26003KT 200V350 8000 NSC 02/M06 Q1030 NOSIG
LWSK - Skoplje, Makedonija
Ažurirano: 24/01/2020 12:30
Vedro
Vedro
 Pravac vetra varies
Vetar: varies 2 km/h
Temperatura: 4°C
Tačka rose: -5°C
Vlažnost: 52%
Pritisak: 1032 hPa
Pregled: Vedro
Vidljivost: greater than 10 km
2020/01/24 11:30 LWSK 241130Z VRB01KT CAVOK 04/M05 Q1032 NOSIG
 
LYPG - Podgorica, Crna Gora
Ažurirano: 24/01/2020 12:00
Partly Cloudy
Partly Cloudy
 Pravac vetra varies
Vetar: varies 4 km/h
Temperatura: 9°C
Tačka rose: -8°C
Vlažnost: 29%
Pritisak: 1031 hPa
Oblaci: Partly Cloudy
Vidljivost: 10 km
Cloud details: Partly Cloudy 2438 m
2020/01/24 11:00 LYPG 241100Z VRB02KT 9999 SCT080 09/M08 Q1031 NOSIG
LQSA - Sarajevo, Bosna i Hercegovina
Ažurirano: 24/01/2020 12:00
Partly Cloudy
Partly Cloudy
 Pravac vetra varies
Vetar: varies 2 km/h
Temperatura: 1°C
Tačka rose: -4°C
Vlažnost: 70%
Pritisak: 1028 hPa
Oblaci: Partly Cloudy
Vidljivost: 6 km
2020/01/24 11:00 LQSA 241100Z VRB01KT 6000 NSC 01/M04 Q1028 NOSIG
LDOS - Osijek, Hrvatksa
Ažurirano: 24/01/2020 12:30
Partly Cloudy
Partly Cloudy
 Pravac vetra varies
Vetar: varies 4 km/h
Temperatura: 3°C
Tačka rose: -2°C
Vlažnost: 70%
Pritisak: 1028 hPa
Oblaci: Partly Cloudy
Vidljivost: 7 km
2020/01/24 11:30 LDOS 241130Z VRB02KT 7000 NSC 03/M02 Q1028